Hub


Voltar

 INFORMAÇÕES METEOROLÓGICAS

METAR FOR SBSR


ADDS - METARS form results

(2340 UTC 19 August 2019)
Data provider http://aviationweather.gov/metar/data/
 
METAR text: SBSR 192300Z 17003KT 9000 NSC 25/16 Q1016
Conditions at: SBSR (SAO JOSE PRETO , BR) observed 2300 UTC 19 August 2019
Temperature: 25.0°C (77°F)
Dewpoint: 16.0°C (61°F) [RH = 57%]
Pressure (altimeter): 30.00 inches Hg (1016.0 mb)
Winds: from the S (170 degrees) at 3 MPH (3 knots; 1.5 m/s)
Visibility: 6 miles ( 9 km)
Ceiling: at least 12,000 feet AGL
Clouds: sky clear below 12,000 feet AGL
Weather: no significant weather observed at this time


 MAPA DO AEROPORTO


 INFORMAÇÕES DA PISTA

Pista 7 Tamanho da pista 5381 ft Largura da pista 115 ft
Elevação da pista 0 ft Ranhura da pista 0 ft Proa da pista 0
Pista 25 Tamanho da pista 5381 ft Largura da pista 115 ft
Elevação da pista 0 ft Ranhura da pista 0 ft Proa da pista 0

 FREQUÊNCIAS DO AEROPORTO

Tipo AFIS Nome RDO Frequência 130.85 MHZ

 AUXÍLIOS DE NAVEGAÇÃO PRÓXIMOS AO AEROPORTO

Tipo NDB Nome Rio Preto Frequência 420 KHZ